Otho, IA (50569)

10:36 AM CDT am 25. März 2017 (GMT -0500)
Savage Addition | | Change Station

Höhe 1155 ft 42.46 °N, 94.20 °W | Updated 17 seconds ago

Regen
Regen
37.5 °F
gefühlte 32 °F
N
8.0
Wind Wechselnd Wind aus Ost-Nordost

Heute
Max. -- | schwach -- °F
--% Regenrisiko
Gestern
Max. -- | schwach -- °F
Precip. -- inch
Druck 30.03 inch
Sichtweite 1.8 Meilen
Wolken Bedeckt 500 ft
Windchill 32 °F
Taupunkt 36 °F
Feuchtigkeit 96%
Regen 0.20 inch
Schneehöhe Nicht verfügbar..
7:10 AM 7:34 PM
Letztes Viertel, 8% visible
METAR KFOD 251535Z AUTO 05010KT 1 3/4SM OVC005 03/01 A3003 RMK AO1
Druck 30.03 inch
Sichtweite 1.8 Meilen
Wolken Bedeckt 500 ft
Windchill 32 °F
Taupunkt 36 °F
Feuchtigkeit 96%
Regen 0.20 inch
Schneehöhe Nicht verfügbar..
7:10 AM 7:34 PM
Letztes Viertel, 8% visible
METAR KFOD 251535Z AUTO 05010KT 1 3/4SM OVC005 03/01 A3003 RMK AO1

Get Severe Weather Alerts

Thanks for signing up!

Be on the lookout for a verification email in your inbox.

You'll start receiving the daily forecast at 8 AM.

×

10-Day Weather Forecast

Almanac

Astronomie

Mar. 25, 2017 Aufgang Untergang
Genaue Zeit
Bürgerliche Dämmerung
Nautische Dämmerung
Astronomische Dämmerung
Mond
Länge des sichtbaren Lichts
Tageslänge
Tomorrow will be .
, % of the Moon is Illuminated

Heutige Rekorde

State Highs State Lows

Community

WunderPhotos

Upload Photos

1,962,540 Fotos hochgeladen!

WunderBlog® & News

Nearby

Luftqualität

  Luftqualität LQ Index Schadstoff
Not available.

Schneehöhe

Station Depth Höhe

Erdbebenaktivität

Stadt Distance Mag. Time & Date
Minimum magnitude displayed is 2.5.

Erdbebenaktivität

Stadt Distance Mag. Time & Date
Minimum magnitude displayed is 2.5.

küstennahe Wassertemperaturen

Ort Temperatur

Stations

Wetterstationen in der Umgebung

Stationsstandort Temp. Windchill Taupunkt Feuchtigkeit Wind Precip. Höhe Aktualisiert Art
                   

Watches & Warnings

There are currently no watches in effect.